createdAt,value
2018-05-15T06:32:02.971Z,6.30
2018-05-15T06:37:04.276Z,5.67
2018-05-15T06:42:05.607Z,4.73
2018-05-15T06:47:06.894Z,4.00
2018-05-15T06:52:08.208Z,3.70
2018-05-15T06:57:09.509Z,3.80
2018-05-15T07:02:10.783Z,3.47
2018-05-15T07:07:12.076Z,3.60
2018-05-15T07:12:14.083Z,3.47
2018-05-15T07:17:15.380Z,2.93
2018-05-15T07:22:16.655Z,3.00
2018-05-15T07:27:18.729Z,3.47
2018-05-15T07:32:19.995Z,3.30
2018-05-15T07:37:21.284Z,2.80
2018-05-15T07:42:22.575Z,3.00
2018-05-15T07:47:23.873Z,2.87
2018-05-15T07:52:25.171Z,2.90
2018-05-15T07:57:26.472Z,2.80
2018-05-15T08:02:27.764Z,3.00
2018-05-15T08:07:29.067Z,3.00
2018-05-15T08:12:30.535Z,2.97
2018-05-15T08:17:31.832Z,2.83
2018-05-15T08:22:34.176Z,2.50
2018-05-15T08:27:35.436Z,2.90
2018-05-15T08:32:36.761Z,2.97
2018-05-15T08:37:38.097Z,2.60
2018-05-15T08:42:39.374Z,2.87
2018-05-15T08:47:40.691Z,2.33
2018-05-15T08:52:41.993Z,2.70
2018-05-15T08:57:43.322Z,2.47
2018-05-15T09:02:44.655Z,2.37
2018-05-15T09:07:45.990Z,2.80
2018-05-15T09:12:48.242Z,2.50
2018-05-15T09:17:49.572Z,2.40
2018-05-15T09:22:50.907Z,2.67
2018-05-15T09:27:52.215Z,2.23
2018-05-15T09:32:53.505Z,2.70
2018-05-15T09:37:54.862Z,2.13
2018-05-15T09:42:56.099Z,2.27
2018-05-15T09:47:57.425Z,2.50
2018-05-15T09:52:58.719Z,2.53
2018-05-15T09:58:00.015Z,2.13
2018-05-15T10:03:01.329Z,2.60
2018-05-15T10:08:02.668Z,2.47
2018-05-15T10:13:03.980Z,2.00
2018-05-15T10:18:05.273Z,2.27
2018-05-15T10:23:07.334Z,2.30
2018-05-15T10:28:08.644Z,2.23
2018-05-15T10:33:10.687Z,2.30
2018-05-15T10:38:14.144Z,2.00
2018-05-15T10:43:15.624Z,2.40
2018-05-15T10:48:16.935Z,1.97
2018-05-15T10:53:19.214Z,2.30
2018-05-15T10:58:20.510Z,5.40
2018-05-15T11:03:21.834Z,6.40
2018-05-15T11:08:23.176Z,6.50
2018-05-15T11:13:24.518Z,7.97
2018-05-15T11:18:42.778Z,7.63
2018-05-15T11:23:51.125Z,8.90
2018-05-15T11:28:52.464Z,8.60
2018-05-15T11:33:53.791Z,8.87
2018-05-15T11:38:55.098Z,8.83
2018-05-15T11:43:57.148Z,7.17
2018-05-15T11:48:59.266Z,6.40
2018-05-15T11:54:00.306Z,6.33
2018-05-15T11:59:01.513Z,5.90
2018-05-15T12:04:03.014Z,6.07
2018-05-15T12:09:05.057Z,5.60
2018-05-15T12:14:06.390Z,5.87
2018-05-15T12:19:08.448Z,5.87
2018-05-15T12:24:09.764Z,5.60
2018-05-15T12:29:11.092Z,5.17
2018-05-15T12:34:12.414Z,5.37
2018-05-15T12:39:13.728Z,4.53
2018-05-15T12:44:15.769Z,5.10
2018-05-15T12:49:17.077Z,4.33
2018-05-15T12:54:19.116Z,4.50
2018-05-15T12:59:20.443Z,4.20
2018-05-15T13:04:21.746Z,5.00
2018-05-15T13:09:23.107Z,4.27
2018-05-15T13:14:24.410Z,4.63
2018-05-15T13:19:25.715Z,4.17
2018-05-15T13:24:27.903Z,4.23
2018-05-15T13:29:29.160Z,4.10
2018-05-15T13:34:30.444Z,3.73
2018-05-15T13:39:33.353Z,4.13
2018-05-15T13:44:34.648Z,3.83
2018-05-15T13:49:35.974Z,3.93
2018-05-15T13:54:37.280Z,3.77
2018-05-15T13:59:38.626Z,3.80
2018-05-15T14:04:39.954Z,3.70
2018-05-15T14:09:41.297Z,3.50
2018-05-15T14:14:44.029Z,3.50
2018-05-15T14:19:45.328Z,3.60
2018-05-15T14:24:46.679Z,3.40
2018-05-15T14:29:48.011Z,3.77
2018-05-15T14:34:49.325Z,3.30
2018-05-15T14:39:50.611Z,3.30
2018-05-15T14:44:51.921Z,3.27
2018-05-15T14:49:53.245Z,3.50
2018-05-15T14:54:55.317Z,3.40
2018-05-15T14:59:56.591Z,3.43
2018-05-15T15:04:58.716Z,3.47
2018-05-15T15:10:00.053Z,3.27
2018-05-15T15:15:01.355Z,3.60
2018-05-15T15:20:02.673Z,2.67
2018-05-15T15:25:04.709Z,3.17
2018-05-15T15:30:06.016Z,3.30
2018-05-15T15:35:08.344Z,3.40
2018-05-15T15:40:09.597Z,2.87
2018-05-15T15:45:10.896Z,3.17
2018-05-15T15:50:12.209Z,3.37
2018-05-15T15:55:13.600Z,3.20
2018-05-15T16:00:14.829Z,3.00
2018-05-15T16:05:16.876Z,3.20
2018-05-15T16:10:18.177Z,3.07
2018-05-15T16:15:20.235Z,2.90
2018-05-15T16:20:21.545Z,2.77
2018-05-15T16:25:22.910Z,2.97
2018-05-15T16:30:24.207Z,3.27
2018-05-15T16:35:26.279Z,3.00
2018-05-15T16:40:27.588Z,3.50
2018-05-15T16:45:29.619Z,2.67
2018-05-15T16:50:30.913Z,3.10
2018-05-15T16:55:32.223Z,3.00
2018-05-15T17:00:33.535Z,3.00
2018-05-15T17:05:34.855Z,3.67
2018-05-15T17:10:36.172Z,4.30
2018-05-15T17:15:37.483Z,3.40
2018-05-15T17:20:38.800Z,2.80
2018-05-15T17:25:40.091Z,2.80
2018-05-15T17:30:42.247Z,2.97
2018-05-15T17:35:44.081Z,3.17
2018-05-15T17:40:46.118Z,2.80
2018-05-15T17:45:47.355Z,3.37
2018-05-15T17:50:48.667Z,3.17
2018-05-15T17:55:50.703Z,6.37
2018-05-15T18:00:52.790Z,5.10
2018-05-15T18:05:54.105Z,3.70
2018-05-15T18:10:55.443Z,3.60
2018-05-15T18:15:57.523Z,3.60
2018-05-15T18:20:58.867Z,3.50
2018-05-15T18:26:00.168Z,3.37
2018-05-15T18:31:01.501Z,3.17
2018-05-15T18:36:03.619Z,3.67
2018-05-15T18:41:04.950Z,2.93
2018-05-15T18:46:06.291Z,3.13
2018-05-15T18:51:07.596Z,3.93
2018-05-15T18:56:08.909Z,3.30
2018-05-15T19:01:10.248Z,3.10
2018-05-15T19:06:11.591Z,3.57
2018-05-15T19:11:18.824Z,3.17
2018-05-15T19:16:20.157Z,2.87
2018-05-15T19:21:21.453Z,3.30
2018-05-15T19:26:22.751Z,3.10
2018-05-15T19:31:30.116Z,2.60
2018-05-15T19:36:32.186Z,3.03
2018-05-15T19:41:33.841Z,2.80
2018-05-15T19:46:35.891Z,2.63
2018-05-15T19:51:37.191Z,2.97
2018-05-15T19:56:38.539Z,2.80
2018-05-15T20:01:39.888Z,2.83
2018-05-15T20:06:41.235Z,2.90
2018-05-15T20:11:42.557Z,2.63
2018-05-15T20:16:43.854Z,2.47
2018-05-15T20:21:45.192Z,2.73
2018-05-15T20:26:47.773Z,2.60
2018-05-15T20:31:49.088Z,2.60
2018-05-15T20:36:50.765Z,2.67
2018-05-15T20:41:52.909Z,2.77
2018-05-15T20:46:54.230Z,2.80
2018-05-15T20:51:55.609Z,2.57
2018-05-15T20:56:56.924Z,2.70
2018-05-15T21:01:58.246Z,2.60
2018-05-15T21:06:59.557Z,2.50
2018-05-15T21:12:00.868Z,2.23
2018-05-15T21:17:02.191Z,2.43
2018-05-15T21:22:03.515Z,2.40
2018-05-15T21:27:04.827Z,2.63
2018-05-15T21:32:06.144Z,2.63
2018-05-15T21:37:07.447Z,2.20
2018-05-15T21:42:08.748Z,2.60
2018-05-15T21:47:10.053Z,2.30
2018-05-15T21:52:12.112Z,2.33
2018-05-15T21:57:13.435Z,2.30
2018-05-15T22:02:14.744Z,2.20
2018-05-15T22:07:16.075Z,2.20
2018-05-15T22:12:29.534Z,2.20
2018-05-15T22:17:49.176Z,2.50
2018-05-15T22:22:57.193Z,1.87
2018-05-15T22:27:58.560Z,2.07
2018-05-15T22:32:59.895Z,2.00
2018-05-15T22:38:01.240Z,2.13
